Time;durP1;ratioP1;P1;durP2;ratioP2;P2;SDS_P1;SDS_P2;PMS_P1;PMS_P2;Temp;Humidity;BMP_temperature;BMP_pressure;BME280_temperature;BME280_humidity;BME280_pressure;Samples;Min_cycle;Max_cycle;Signal;HPM_P1;HPM_P2
2021/12/08 00:01:59;;;;;;;52.50;22.40;;;;;;;0.66;nan;99976.06;5013706;28;20112;-76
2021/12/08 00:04:45;;;;;;;49.72;20.63;;;;;;;0.53;nan;99961.91;5022027;28;20140;-75
2021/12/08 00:07:32;;;;;;;56.45;23.45;;;;;;;0.62;nan;99979.00;5031975;28;20124;-75
2021/12/08 00:13:13;;;;;;;56.70;22.52;;;;;;;0.71;nan;99991.91;5020895;28;20407;-75
2021/12/08 00:16:02;;;;;;;48.97;20.80;;;;;;;0.70;nan;99985.94;5030282;28;20783;-76
2021/12/08 00:18:48;;;;;;;49.47;22.45;;;;;;;0.71;nan;99992.72;5031060;28;20106;-76
2021/12/08 00:21:34;;;;;;;55.13;23.73;;;;;;;0.75;nan;100004.38;5016334;28;20034;-75
2021/12/08 00:24:20;;;;;;;51.33;23.30;;;;;;;0.70;nan;99995.50;5029910;28;20037;-75
2021/12/08 00:27:06;;;;;;;54.45;23.08;;;;;;;0.78;nan;100004.00;5020827;28;20488;-75
2021/12/08 00:29:52;;;;;;;53.65;22.77;;;;;;;0.73;nan;100011.50;5023119;28;20095;-76
2021/12/08 00:32:38;;;;;;;62.88;24.83;;;;;;;0.74;nan;100022.66;5026432;28;20037;-75
2021/12/08 00:35:27;;;;;;;53.30;23.55;;;;;;;0.73;nan;100021.06;5022122;28;20033;-76
2021/12/08 00:38:13;;;;;;;41.10;17.30;;;;;;;0.66;nan;100010.56;5044154;28;20478;-76
2021/12/08 00:40:59;;;;;;;53.92;23.08;;;;;;;0.69;nan;100009.41;5030061;28;20030;-76
2021/12/08 00:43:45;;;;;;;57.95;23.63;;;;;;;0.71;nan;100026.41;5026802;28;20032;-76
2021/12/08 00:46:32;;;;;;;54.50;23.58;;;;;;;0.72;nan;100020.25;5032279;28;20065;-76
2021/12/08 00:49:18;;;;;;;55.33;23.27;;;;;;;0.69;nan;100020.56;5031452;28;20080;-76
2021/12/08 00:52:04;;;;;;;61.45;23.77;;;;;;;0.62;nan;100020.47;5013992;28;20459;-76
2021/12/08 00:54:50;;;;;;;55.22;23.23;;;;;;;0.68;nan;100023.34;5029961;28;20573;-75
2021/12/08 00:57:36;;;;;;;59.08;24.83;;;;;;;0.78;nan;100031.72;5029022;28;20395;-76
2021/12/08 01:00:28;;;;;;;60.72;24.73;;;;;;;0.79;nan;100038.50;5019565;28;20041;-75
2021/12/08 01:03:16;;;;;;;58.30;24.58;;;;;;;0.78;nan;100039.50;5021720;28;20041;-75
2021/12/08 01:06:04;;;;;;;59.90;24.85;;;;;;;0.86;nan;100042.03;5031993;28;20045;-75
2021/12/08 01:08:49;;;;;;;56.45;24.80;;;;;;;0.78;nan;100031.72;5026555;28;20376;-75
2021/12/08 01:11:36;;;;;;;57.70;24.83;;;;;;;0.88;nan;100047.84;5027822;28;20099;-76
2021/12/08 01:14:21;;;;;;;59.17;25.30;;;;;;;0.89;nan;100049.50;5013669;28;20471;-75
2021/12/08 01:17:09;;;;;;;60.15;25.67;;;;;;;0.85;nan;100041.22;5011901;28;20040;-75
2021/12/08 01:19:55;;;;;;;62.42;24.90;;;;;;;0.81;nan;100029.59;5012462;28;20042;-75
2021/12/08 01:22:42;;;;;;;61.13;25.48;;;;;;;0.86;nan;100047.22;5023211;28;20042;-75
2021/12/08 01:25:28;;;;;;;60.67;25.05;;;;;;;0.82;nan;100038.19;5031624;28;20095;-76
2021/12/08 01:28:18;;;;;;;59.22;25.30;;;;;;;0.81;nan;100039.97;5019048;28;20045;-76
2021/12/08 01:31:05;;;;;;;63.83;25.40;;;;;;;0.92;nan;100048.34;5016986;28;20073;-76
2021/12/08 01:33:51;;;;;;;61.58;25.95;;;;;;;0.91;nan;100055.31;5022157;28;20045;-75
2021/12/08 01:36:38;;;;;;;67.43;25.90;;;;;;;0.92;nan;100051.72;5029470;28;20442;-76
2021/12/08 01:39:24;;;;;;;59.50;25.40;;;;;;;0.87;nan;100042.88;5030080;28;20491;-76
2021/12/08 01:42:16;;;;;;;59.22;24.38;;;;;;;0.92;nan;100050.94;5028866;28;20040;-75
2021/12/08 01:48:14;;;;;;;61.13;25.20;;;;;;;0.62;nan;99998.91;5030422;28;20034;-76
2021/12/08 01:51:04;;;;;;;60.13;24.10;;;;;;;0.79;nan;100028.97;5031096;28;20502;-76
2021/12/08 01:53:53;;;;;;;57.72;24.08;;;;;;;0.79;nan;100020.38;5025558;28;20033;-76
2021/12/08 01:56:39;;;;;;;62.53;24.23;;;;;;;0.72;nan;100014.25;5022166;28;20052;-76
2021/12/08 01:59:25;;;;;;;56.53;23.67;;;;;;;0.76;nan;100034.47;5028774;28;20042;-77
2021/12/08 02:02:10;;;;;;;54.88;22.73;;;;;;;0.71;nan;100023.00;5021159;28;20108;-76
2021/12/08 02:04:56;;;;;;;56.30;24.23;;;;;;;0.78;nan;100035.09;5011461;28;20038;-76
2021/12/08 02:07:42;;;;;;;59.53;24.17;;;;;;;0.75;nan;100030.28;5026880;28;20025;-75
2021/12/08 02:10:28;;;;;;;56.55;23.83;;;;;;;0.88;nan;100052.25;5033048;28;20072;-76
2021/12/08 02:13:14;;;;;;;63.67;26.30;;;;;;;0.88;nan;100055.63;5032954;28;20566;-75
2021/12/08 02:16:01;;;;;;;65.30;24.65;;;;;;;0.88;nan;100050.44;5026878;28;20038;-76
2021/12/08 02:18:49;;;;;;;58.75;24.75;;;;;;;0.72;nan;100029.78;5025676;28;20038;-76
2021/12/08 02:21:39;;;;;;;57.03;24.07;;;;;;;0.77;nan;100043.88;5014641;28;20042;-76
2021/12/08 02:24:25;;;;;;;;;;;;;;;0.84;nan;100060.38;5046456;28;20064;-77
2021/12/08 02:27:10;;;;;;;53.00;22.75;;;;;;;0.77;nan;100045.66;5030271;28;19912;-76
2021/12/08 02:30:04;;;;;;;53.28;23.08;;;;;;;0.76;nan;100057.00;5020363;28;20046;-76
2021/12/08 02:47:56;;;;;;;56.83;23.52;;;;;;;0.68;nan;100067.41;5025054;28;20045;-76
2021/12/08 02:50:43;;;;;;;60.10;24.38;;;;;;;0.66;nan;100051.22;5031294;28;20036;-76
2021/12/08 02:53:31;;;;;;;58.95;24.08;;;;;;;0.59;nan;100048.47;5031474;28;20412;-75
2021/12/08 02:56:17;;;;;;;50.95;21.50;;;;;;;0.62;nan;100058.50;5031243;28;20030;-76
2021/12/08 02:59:04;;;;;;;54.15;22.63;;;;;;;0.54;nan;100055.97;5029789;28;21312;-76
2021/12/08 03:01:50;;;;;;;57.05;22.88;;;;;;;0.59;nan;100057.06;5031495;28;20048;-76
2021/12/08 03:04:36;;;;;;;55.88;22.33;;;;;;;0.60;nan;100058.69;5032613;28;20042;-76
2021/12/08 03:07:22;;;;;;;55.50;22.63;;;;;;;0.51;nan;100049.31;5031833;28;20060;-76
2021/12/08 03:10:12;;;;;;;60.58;24.13;;;;;;;0.51;nan;100053.72;5029966;28;20839;-76
2021/12/08 03:12:58;;;;;;;51.60;22.17;;;;;;;0.49;nan;100058.25;5024385;28;20658;-76
2021/12/08 03:15:45;;;;;;;52.85;22.30;;;;;;;0.55;nan;100063.56;5015139;28;20487;-77
2021/12/08 03:18:34;;;;;;;58.63;23.35;;;;;;;0.52;nan;100048.34;5020332;28;20069;-76
2021/12/08 03:21:27;;;;;;;56.13;22.75;;;;;;;0.58;nan;100052.88;5031966;28;20099;-76
2021/12/08 03:29:57;;;;;;;53.13;22.85;;;;;;;0.62;nan;100066.28;5033574;28;20037;-76
2021/12/08 03:32:43;;;;;;;54.65;22.48;;;;;;;0.61;nan;100064.66;5031370;28;20034;-76
2021/12/08 03:35:30;;;;;;;58.63;23.33;;;;;;;0.63;nan;100071.31;5026440;28;20034;-76
2021/12/08 03:38:18;;;;;;;59.58;23.33;;;;;;;0.62;nan;100077.47;5019218;28;20124;-77
2021/12/08 03:41:04;;;;;;;53.25;21.50;;;;;;;0.58;nan;100071.00;5030544;28;20115;-77
2021/12/08 03:43:51;;;;;;;51.97;22.05;;;;;;;0.60;nan;100073.44;5025798;28;20052;-77
2021/12/08 03:46:40;;;;;;;54.65;23.23;;;;;;;0.58;nan;100070.19;5014795;28;20038;-77
2021/12/08 03:49:27;;;;;;;54.00;22.63;;;;;;;0.57;nan;100078.94;5023590;28;20041;-76
2021/12/08 03:52:13;;;;;;;51.78;22.17;;;;;;;0.51;nan;100075.25;5015990;28;20060;-77
2021/12/08 03:54:59;;;;;;;48.72;21.83;;;;;;;0.47;nan;100084.31;5016410;28;20041;-77
2021/12/08 03:57:45;;;;;;;60.88;23.77;;;;;;;0.39;nan;100067.00;5013965;28;20561;-77
2021/12/08 04:00:31;;;;;;;54.85;22.65;;;;;;;0.48;nan;100085.94;5015445;28;20171;-77
2021/12/08 04:03:18;;;;;;;56.45;23.33;;;;;;;0.50;nan;100089.16;5023306;28;20496;-77
2021/12/08 04:06:14;;;;;;;57.72;22.88;;;;;;;0.52;nan;100084.59;5030389;28;20045;-77
2021/12/08 04:09:05;;;;;;;54.80;21.90;;;;;;;0.45;nan;100083.66;5019258;28;20054;-77
2021/12/08 04:11:51;;;;;;;59.95;22.83;;;;;;;0.53;nan;100094.00;5031887;28;20026;-77
2021/12/08 04:14:41;;;;;;;59.92;23.05;;;;;;;0.46;nan;100079.31;5029014;28;20033;-77
2021/12/08 04:17:35;;;;;;;50.63;21.65;;;;;;;0.46;nan;100077.53;5015859;28;20038;-76
2021/12/08 04:20:27;;;;;;;53.50;22.05;;;;;;;0.54;nan;100094.81;5031816;28;20041;-76
2021/12/08 04:23:16;;;;;;;55.35;22.33;;;;;;;0.52;nan;100100.16;5030505;28;20092;-76
2021/12/08 04:26:06;;;;;;;58.50;22.48;;;;;;;0.53;nan;100109.56;5019277;28;20049;-75
2021/12/08 04:28:53;;;;;;;61.13;23.58;;;;;;;0.48;nan;100109.25;5031233;28;20041;-76
2021/12/08 04:31:41;;;;;;;63.60;25.65;;;;;;;0.56;nan;100111.00;5021600;28;20491;-77
2021/12/08 04:34:32;;;;;;;70.40;28.15;;;;;;;0.84;nan;100101.84;5015342;28;20049;-76
2021/12/08 04:37:26;;;;;;;61.78;22.88;;;;;;;0.94;nan;100103.41;5027473;28;20228;-76
2021/12/08 04:40:26;;;;;;;57.92;23.52;;;;;;;0.92;nan;100106.16;5021913;28;20561;-77
2021/12/08 04:43:24;;;;;;;58.75;22.33;;;;;;;0.83;nan;100104.59;5020389;28;20045;-77
2021/12/08 04:52:22;;;;;;;57.75;22.80;;;;;;;0.64;nan;100110.97;5031220;28;20450;-77
2021/12/08 05:01:58;;;;;;;62.85;23.73;;;;;;;0.58;nan;100106.47;5020668;28;20042;-76
2021/12/08 05:10:35;;;;;;;54.03;22.05;;;;;;;0.60;nan;100122.66;5026776;28;20025;-77
2021/12/08 05:13:21;;;;;;;54.65;22.85;;;;;;;0.52;nan;100110.50;5030194;28;20044;-76
2021/12/08 05:16:07;;;;;;;52.60;22.38;;;;;;;0.61;nan;100122.47;5029771;28;20123;-77
2021/12/08 05:18:56;;;;;;;56.92;23.15;;;;;;;0.51;nan;100108.13;5029021;28;20450;-76
2021/12/08 05:21:47;;;;;;;59.97;23.73;;;;;;;0.59;nan;100124.44;5029368;28;20042;-76
2021/12/08 05:24:37;;;;;;;57.85;24.15;;;;;;;0.54;nan;100116.34;5023249;28;20091;-77
2021/12/08 05:27:33;;;;;;;58.03;22.52;;;;;;;0.51;nan;100119.28;5031040;28;20601;-76
2021/12/08 05:30:31;;;;;;;59.58;23.65;;;;;;;0.55;nan;100133.53;5028345;28;20114;-76
2021/12/08 05:33:18;;;;;;;58.83;24.75;;;;;;;0.47;nan;100130.94;5057425;28;20426;-76
2021/12/08 05:36:05;;;;;;;57.85;23.55;;;;;;;0.46;nan;100131.94;5025348;28;20042;-77
2021/12/08 05:38:55;;;;;;;54.58;24.70;;;;;;;0.44;nan;100131.28;5019092;28;20041;-77
2021/12/08 05:41:42;;;;;;;60.58;24.33;;;;;;;0.39;nan;100134.34;5013088;28;20041;-75
2021/12/08 05:44:29;;;;;;;67.43;26.75;;;;;;;0.31;nan;100136.97;5027154;28;20116;-76
2021/12/08 05:47:19;;;;;;;64.57;25.25;;;;;;;0.23;nan;100120.63;5030546;28;20044;-76
2021/12/08 05:50:09;;;;;;;60.63;25.05;;;;;;;0.29;nan;100143.25;5030571;28;20167;-77
2021/12/08 05:52:57;;;;;;;;;;;;;;;0.28;nan;100147.63;5034684;28;20073;-77
2021/12/08 05:55:44;;;;;;;57.38;22.77;;;;;;;0.19;nan;100144.28;5033707;28;19974;-76
2021/12/08 05:58:30;;;;;;;57.25;24.35;;;;;;;0.05;nan;100131.97;5018049;28;20041;-77
2021/12/08 06:01:19;;;;;;;57.08;24.05;;;;;;;0.07;nan;100147.34;5032835;28;20114;-75
2021/12/08 06:04:08;;;;;;;62.40;24.60;;;;;;;-0.01;nan;100141.19;5060987;28;20037;-75
2021/12/08 06:06:55;;;;;;;62.88;25.90;;;;;;;-0.04;nan;100144.09;5032889;28;20033;-76
2021/12/08 06:09:42;;;;;;;62.10;24.95;;;;;;;-0.17;nan;100127.44;5020502;28;20045;-75
2021/12/08 06:12:28;;;;;;;64.85;24.48;;;;;;;-0.15;nan;100143.63;5029236;28;20025;-76
2021/12/08 06:15:14;;;;;;;68.68;25.77;;;;;;;-0.10;nan;100159.47;5035790;28;20060;-77
2021/12/08 06:18:00;;;;;;;61.50;25.02;;;;;;;-0.26;nan;100150.75;5035240;28;20033;-77
2021/12/08 06:20:46;;;;;;;68.63;27.10;;;;;;;-0.18;nan;100173.22;5039631;28;20040;-73
2021/12/08 06:23:32;;;;;;;69.20;27.33;;;;;;;-0.28;nan;100160.44;5027763;28;20057;-76
2021/12/08 06:26:20;;;;;;;69.60;29.10;;;;;;;-0.28;nan;100164.81;5032184;28;20450;-76
2021/12/08 06:29:11;;;;;;;68.67;27.07;;;;;;;-0.36;nan;100163.03;5033277;28;20041;-75
2021/12/08 06:31:59;;;;;;;67.18;25.83;;;;;;;-0.41;nan;100154.91;5024926;28;20083;-75
2021/12/08 06:34:49;;;;;;;69.07;27.55;;;;;;;-0.38;nan;100170.13;5036270;28;20047;-75
2021/12/08 06:37:39;;;;;;;75.35;27.40;;;;;;;-0.46;nan;100170.09;5040083;28;20032;-75
2021/12/08 06:40:31;;;;;;;67.60;25.13;;;;;;;-0.49;nan;100173.81;5035880;28;20507;-76
2021/12/08 06:43:25;;;;;;;73.05;27.90;;;;;;;-0.50;nan;100185.13;5028795;28;20583;-75
2021/12/08 06:46:11;;;;;;;67.50;26.05;;;;;;;-0.61;nan;100167.31;5040385;28;20040;-76
2021/12/08 06:49:01;;;;;;;74.88;28.55;;;;;;;-0.62;nan;100170.88;5037226;28;20182;-76
2021/12/08 06:51:46;;;;;;;;;;;;;;;;;;5028701;28;20113;-78
2021/12/08 06:54:34;;;;;;;69.38;26.70;;;;;;;;;;5030630;28;19909;-76
2021/12/08 06:57:22;;;;;;;71.93;28.52;;;;;;;;;;5033426;28;20038;-77
2021/12/08 07:00:23;;;;;;;76.17;28.77;;;;;;;;;;5033640;28;20059;-77
2021/12/08 07:03:31;;;;;;;80.13;29.13;;;;;;;;;;5013386;28;20645;-76
2021/12/08 07:09:28;;;;;;;69.20;26.75;;;;;;;;;;5034488;28;20039;-67
2021/12/08 07:12:19;;;;;;;75.15;29.00;;;;;;;;;;5050644;28;20522;-65
2021/12/08 07:15:15;;;;;;;73.15;27.00;;;;;;;;;;5042506;28;20067;-69
2021/12/08 07:18:05;;;;;;;66.15;28.77;;;;;;;;;;5033515;28;20562;-69
2021/12/08 07:20:50;;;;;;;;;;;;;;;;;;5033270;28;20403;-69
2021/12/08 07:23:43;;;;;;;74.30;27.10;;;;;;;;;;5033495;28;19913;-68
2021/12/08 07:26:30;;;;;;;82.80;29.90;;;;;;;;;;5030944;28;20029;-69
2021/12/08 07:29:18;;;;;;;76.40;27.92;;;;;;;;;;5030476;28;20391;-69
2021/12/08 07:32:06;;;;;;;72.45;28.65;;;;;;;;;;5033680;28;20095;-76
2021/12/08 07:34:52;;;;;;;76.75;28.35;;;;;;;;;;5044491;28;20037;-77
2021/12/08 07:37:38;;;;;;;72.97;28.00;;;;;;;;;;5048826;28;20061;-77
2021/12/08 07:40:26;;;;;;;70.50;25.70;;;;;;;;;;5025807;28;20069;-75
2021/12/08 07:43:14;;;;;;;79.28;29.10;;;;;;;;;;5017915;28;20049;-75
2021/12/08 07:46:03;;;;;;;75.78;30.02;;;;;;;;;;5022080;28;20112;-75
2021/12/08 07:48:53;;;;;;;71.90;28.65;;;;;;;;;;5058312;28;20044;-76
2021/12/08 07:51:44;;;;;;;74.13;30.02;;;;;;;;;;5058188;28;20089;-76
2021/12/08 07:54:31;;;;;;;74.13;28.05;;;;;;;;;;5036992;28;20037;-75
2021/12/08 07:57:19;;;;;;;77.32;29.33;;;;;;;;;;5026918;28;20087;-77
2021/12/08 08:00:08;;;;;;;80.03;29.52;;;;;;;;;;5016379;28;20042;-76
2021/12/08 08:02:55;;;;;;;77.70;30.75;;;;;;;;;;5019479;28;20511;-77
2021/12/08 08:05:42;;;;;;;75.72;29.27;;;;;;;;;;5026430;28;20049;-76
2021/12/08 08:08:31;;;;;;;77.00;29.90;;;;;;;;;;5025009;28;20095;-76
2021/12/08 08:11:22;;;;;;;76.43;31.15;;;;;;;;;;5027512;28;20033;-76
2021/12/08 08:14:10;;;;;;;78.15;29.58;;;;;;;;;;5021535;28;20044;-77
2021/12/08 08:16:58;;;;;;;73.47;28.45;;;;;;;;;;5024798;28;20098;-78
2021/12/08 08:19:45;;;;;;;83.13;30.02;;;;;;;;;;5030046;28;20399;-77
2021/12/08 08:22:32;;;;;;;79.68;29.75;;;;;;;;;;5030874;28;20033;-77
2021/12/08 08:25:24;;;;;;;81.45;30.27;;;;;;;;;;5047473;28;20069;-77
2021/12/08 08:28:10;;;;;;;87.25;30.10;;;;;;;;;;5027191;28;20042;-77
2021/12/08 08:30:58;;;;;;;82.50;30.60;;;;;;;;;;5012851;28;20061;-77
2021/12/08 08:33:44;;;;;;;82.03;30.42;;;;;;;;;;5025988;28;20026;-76
2021/12/08 08:36:32;;;;;;;75.15;30.50;;;;;;;;;;5026377;28;20037;-76
2021/12/08 08:39:23;;;;;;;78.22;30.58;;;;;;;;;;5021474;28;20099;-77
2021/12/08 08:42:09;;;;;;;78.70;30.60;;;;;;;;;;5028358;28;20045;-78
2021/12/08 08:45:00;;;;;;;81.93;32.28;;;;;;;;;;5035882;28;20040;-76
2021/12/08 08:47:50;;;;;;;74.95;28.88;;;;;;;;;;5015995;28;20033;-76
2021/12/08 08:50:46;;;;;;;75.50;28.10;;;;;;;;;;5026991;28;20056;-68
2021/12/08 08:53:34;;;;;;;69.68;26.67;;;;;;;;;;5019760;28;20048;-68
2021/12/08 08:56:22;;;;;;;70.15;27.50;;;;;;;;;;5027731;28;20513;-77
2021/12/08 08:59:14;;;;;;;66.53;26.65;;;;;;;;;;5016640;28;20038;-77
2021/12/08 09:02:06;;;;;;;68.57;25.10;;;;;;;;;;5024687;28;20053;-76
2021/12/08 09:04:55;;;;;;;69.40;27.35;;;;;;;;;;5010715;28;20046;-77
2021/12/08 09:07:44;;;;;;;70.95;28.15;;;;;;;;;;5018244;28;20034;-78
2021/12/08 09:10:32;;;;;;;70.72;26.25;;;;;;;;;;5027124;28;20036;-76
2021/12/08 09:13:31;;;;;;;58.00;20.83;;;;;;;;;;5028305;28;20457;-77
2021/12/08 09:16:23;;;;;;;70.72;28.85;;;;;;;;;;5030512;28;20075;-77
2021/12/08 09:19:12;;;;;;;73.93;28.33;;;;;;;;;;5031292;28;20041;-77
2021/12/08 09:22:18;;;;;;;70.43;27.38;;;;;;;;;;5029816;28;20083;-77
2021/12/08 09:25:12;;;;;;;76.60;29.00;;;;;;;;;;5027767;28;20049;-75
2021/12/08 09:28:00;;;;;;;73.10;28.20;;;;;;;;;;5035935;28;20116;-76
2021/12/08 09:30:51;;;;;;;77.63;28.88;;;;;;;;;;5035404;28;20125;-77
2021/12/08 09:33:50;;;;;;;72.78;27.73;;;;;;;;;;5030137;28;20037;-76
2021/12/08 09:36:39;;;;;;;69.78;26.23;;;;;;;;;;5029928;28;20546;-77
2021/12/08 09:39:40;;;;;;;67.88;27.17;;;;;;;;;;5038189;28;20053;-77
2021/12/08 09:42:28;;;;;;;69.47;25.80;;;;;;;;;;5041527;28;20037;-77
2021/12/08 09:45:23;;;;;;;67.85;27.15;;;;;;;;;;5030383;28;20069;-76
2021/12/08 09:48:10;;;;;;;65.53;27.13;;;;;;;;;;5030089;28;20037;-76
2021/12/08 09:50:56;;;;;;;72.55;27.17;;;;;;;;;;5033020;28;20038;-76
2021/12/08 09:53:43;;;;;;;67.03;27.80;;;;;;;;;;5030152;28;20099;-76
2021/12/08 09:56:29;;;;;;;67.97;27.00;;;;;;;;;;5029780;28;20434;-76
2021/12/08 09:59:15;;;;;;;72.90;28.17;;;;;;;;;;5031140;28;20035;-78
2021/12/08 10:02:04;;;;;;;73.00;27.35;;;;;;;;;;5023633;28;20038;-77
2021/12/08 10:04:50;;;;;;;65.10;26.48;;;;;;;;;;5029905;28;20116;-77
2021/12/08 10:07:37;;;;;;;65.13;24.85;;;;;;;;;;5038484;28;20033;-77
2021/12/08 10:10:22;;;;;;;66.60;26.08;;;;;;;;;;5030393;28;20087;-77
2021/12/08 10:13:08;;;;;;;69.00;26.58;;;;;;;;;;5034861;28;20033;-77
2021/12/08 10:15:54;;;;;;;64.53;25.70;;;;;;;;;;5047889;28;20076;-77
2021/12/08 10:18:40;;;;;;;61.22;24.80;;;;;;;;;;5018683;28;20041;-76
2021/12/08 10:21:37;;;;;;;66.75;25.10;;;;;;;;;;5031366;28;20121;-76
2021/12/08 10:24:24;;;;;;;62.63;24.67;;;;;;;;;;5030102;28;20049;-77
2021/12/08 10:27:10;;;;;;;66.57;26.48;;;;;;;;;;5038557;28;20407;-75
2021/12/08 10:30:16;;;;;;;65.68;26.27;;;;;;;;;;5031008;28;20507;-75
2021/12/08 10:33:08;;;;;;;59.78;24.80;;;;;;;;;;5034517;28;20124;-74
2021/12/08 10:36:02;;;;;;;62.67;25.58;;;;;;;;;;5034449;28;20394;-76
2021/12/08 10:38:47;;;;;;;63.58;26.80;;;;;;;;;;5025083;28;20102;-76
2021/12/08 10:41:45;;;;;;;68.47;27.23;;;;;;;;;;5014647;28;20392;-75
2021/12/08 10:44:43;;;;;;;69.60;26.70;;;;;;;;;;5028277;28;20035;-76
2021/12/08 10:47:31;;;;;;;67.93;27.35;;;;;;;;;;5053341;28;20029;-76
2021/12/08 10:56:34;;;;;;;64.68;26.92;;;;;;;;;;5031302;28;20124;-76
2021/12/08 10:59:20;;;;;;;66.28;26.95;;;;;;;;;;5041297;28;20483;-75
2021/12/08 11:02:09;;;;;;;66.68;27.42;;;;;;;;;;5044947;28;20037;-76
2021/12/08 11:04:55;;;;;;;;;;;;;;;;;;5021028;28;20045;-77
2021/12/08 11:07:57;;;;;;;71.53;27.95;;;;;;;;;;5028866;28;19909;-76
2021/12/08 11:10:42;;;;;;;67.93;27.77;;;;;;;;;;5033536;28;20037;-76
2021/12/08 11:13:30;;;;;;;69.80;28.70;;;;;;;;;;5033954;28;20037;-76
2021/12/08 11:16:21;;;;;;;69.50;28.73;;;;;;;;;;5033321;28;20038;-77
2021/12/08 11:19:14;;;;;;;66.13;27.88;;;;;;;;;;5059763;28;20029;-76
2021/12/08 11:22:06;;;;;;;72.28;28.35;;;;;;;;;;5032010;28;20124;-77
2021/12/08 11:24:57;;;;;;;78.90;28.67;;;;;;;;;;5032094;28;20033;-76
2021/12/08 11:27:43;;;;;;;65.65;26.58;;;;;;;0.76;nan;100135.53;5032476;28;20044;-77
2021/12/08 11:30:32;;;;;;;66.20;27.52;;;;;;;0.83;nan;100143.47;5031951;28;20029;-75
2021/12/08 11:33:21;;;;;;;;;;;;;;;0.89;nan;100150.59;5033718;28;20033;-75
2021/12/08 11:36:19;;;;;;;61.43;27.13;;;;;;;0.84;nan;100122.56;5033477;28;19909;-75
2021/12/08 11:39:18;;;;;;;69.47;27.60;;;;;;;1.00;nan;100136.44;5032600;28;20285;-75
2021/12/08 11:42:12;;;;;;;67.50;25.63;;;;;;;1.03;nan;100134.31;5013349;28;20030;-75
2021/12/08 11:45:00;;;;;;;61.10;25.65;;;;;;;1.05;nan;100137.56;5023603;28;20041;-75
2021/12/08 11:47:46;;;;;;;62.65;25.15;;;;;;;1.05;nan;100126.34;5033354;28;20045;-74
2021/12/08 11:50:32;;;;;;;61.58;24.35;;;;;;;0.98;nan;100115.03;5013877;28;20022;-75
2021/12/08 11:53:21;;;;;;;58.38;25.60;;;;;;;1.11;nan;100115.31;5020334;28;20037;-75
2021/12/08 11:56:26;;;;;;;59.60;24.63;;;;;;;1.15;nan;100118.38;5032802;28;20399;-75
2021/12/08 11:59:13;;;;;;;55.80;25.13;;;;;;;1.23;nan;100126.13;5039274;28;20131;-75
2021/12/08 12:01:59;;;;;;;58.95;24.65;;;;;;;1.21;nan;100113.31;5026191;28;20034;-75
2021/12/08 12:04:45;;;;;;;55.20;24.88;;;;;;;1.31;nan;100118.28;5013464;28;20045;-75
2021/12/08 12:07:31;;;;;;;51.90;22.98;;;;;;;1.36;nan;100118.56;5028796;28;20507;-70
2021/12/08 12:10:20;;;;;;;58.47;24.80;;;;;;;1.46;nan;100118.34;5017227;28;20116;-71
2021/12/08 12:13:08;;;;;;;59.22;24.85;;;;;;;1.54;nan;100117.50;5027825;28;20545;-70
2021/12/08 12:15:54;;;;;;;60.67;24.15;;;;;;;1.57;nan;100106.78;5032018;28;20403;-70
2021/12/08 12:18:40;;;;;;;58.40;24.98;;;;;;;1.66;nan;100110.94;5031721;28;20033;-71
2021/12/08 12:21:33;;;;;;;56.70;24.52;;;;;;;1.70;nan;100100.03;5050373;28;20032;-71
2021/12/08 12:24:42;;;;;;;57.20;23.60;;;;;;;1.75;nan;100101.28;5033249;28;20025;-71
2021/12/08 12:27:43;;;;;;;55.33;23.65;;;;;;;1.90;nan;100112.53;5031676;28;20034;-70
2021/12/08 12:31:06;;;;;;;55.42;23.42;;;;;;;1.95;nan;100105.00;5031921;28;20492;-71
2021/12/08 12:33:53;;;;;;;53.67;22.58;;;;;;;2.01;nan;100093.09;5041293;28;20454;-71
2021/12/08 12:36:39;;;;;;;56.75;22.60;;;;;;;2.07;nan;100100.19;5032396;28;20168;-71
2021/12/08 12:39:28;;;;;;;51.45;23.40;;;;;;;2.27;nan;100098.69;5026689;28;20072;-71
2021/12/08 12:42:16;;;;;;;52.65;22.45;;;;;;;2.41;nan;100086.69;5031727;28;20124;-71
2021/12/08 12:45:01;;;;;;;52.08;22.65;;;;;;;2.58;nan;100092.53;5025788;28;20037;-72
2021/12/08 12:48:13;;;;;;;50.30;22.73;;;;;;;2.71;nan;100094.50;5030445;28;20046;-71
2021/12/08 12:51:04;;;;;;;50.05;21.40;;;;;;;2.69;nan;100071.28;5030503;28;20026;-70
2021/12/08 12:53:56;;;;;;;46.55;21.02;;;;;;;2.92;nan;100098.94;5027240;28;20088;-71
2021/12/08 12:56:42;;;;;;;50.72;22.75;;;;;;;3.03;nan;100095.88;5030147;28;20057;-71
2021/12/08 12:59:56;;;;;;;53.33;23.90;;;;;;;2.94;nan;100089.16;5031098;28;20088;-71
2021/12/08 13:02:47;;;;;;;52.13;23.80;;;;;;;2.80;nan;100080.38;5029568;28;20042;-71
2021/12/08 13:05:51;;;;;;;53.60;23.23;;;;;;;2.64;nan;100078.00;5027577;28;20470;-71
2021/12/08 13:08:46;;;;;;;50.53;23.55;;;;;;;2.70;nan;100082.47;5029352;28;20033;-71
2021/12/08 13:11:54;;;;;;;55.00;23.77;;;;;;;2.72;nan;100089.09;5031734;28;20045;-71
2021/12/08 13:14:41;;;;;;;52.05;23.15;;;;;;;2.70;nan;100077.28;5029288;28;20411;-71
2021/12/08 13:17:27;;;;;;;52.58;24.38;;;;;;;2.48;nan;100073.81;5020279;28;20067;-71
2021/12/08 13:20:24;;;;;;;51.03;23.25;;;;;;;2.54;nan;100078.28;5029563;28;20041;-71
2021/12/08 13:23:12;;;;;;;55.13;24.90;;;;;;;2.43;nan;100076.94;5055844;28;20072;-71
2021/12/08 13:26:06;;;;;;;54.28;24.23;;;;;;;2.48;nan;100082.41;5017808;28;20045;-71
2021/12/08 13:29:00;;;;;;;52.05;22.60;;;;;;;2.54;nan;100088.69;5013920;28;20514;-71
2021/12/08 13:32:10;;;;;;;51.95;23.38;;;;;;;2.61;nan;100088.75;5029089;28;20030;-71
2021/12/08 13:34:58;;;;;;;53.35;22.63;;;;;;;2.65;nan;100087.41;5029205;28;20033;-71
2021/12/08 13:37:58;;;;;;;53.42;23.25;;;;;;;2.69;nan;100092.06;5023805;28;20415;-79
2021/12/08 13:40:56;;;;;;;51.92;23.52;;;;;;;2.59;nan;100073.34;5029714;28;20037;-79
2021/12/08 13:43:45;;;;;;;54.03;23.58;;;;;;;2.69;nan;100089.47;5029892;28;20041;-79
2021/12/08 13:46:36;;;;;;;54.35;23.25;;;;;;;2.72;nan;100096.91;5036012;28;20100;-79
2021/12/08 13:49:28;;;;;;;51.75;23.02;;;;;;;2.67;nan;100086.25;5036296;28;20184;-78
2021/12/08 13:52:20;;;;;;;48.55;21.70;;;;;;;2.69;nan;100088.66;5037232;28;20026;-79
2021/12/08 13:55:09;;;;;;;50.97;23.95;;;;;;;2.64;nan;100086.63;5036701;28;20092;-78
2021/12/08 13:58:19;;;;;;;52.75;22.70;;;;;;;2.53;nan;100074.06;5038022;28;20029;-78
2021/12/08 14:01:06;;;;;;;53.47;24.67;;;;;;;2.56;nan;100089.28;5033076;28;20463;-78
2021/12/08 14:03:52;;;;;;;60.42;25.40;;;;;;;2.28;nan;100052.75;5035661;28;20041;-79
2021/12/08 14:06:37;;;;;;;61.33;25.50;;;;;;;2.47;nan;100103.38;5036511;28;20048;-78
2021/12/08 14:09:23;;;;;;;57.63;24.75;;;;;;;2.32;nan;100075.59;5021235;28;20029;-78
2021/12/08 14:12:09;;;;;;;52.05;22.38;;;;;;;2.38;nan;100096.66;5035188;28;20037;-77
2021/12/08 14:14:58;;;;;;;52.53;22.83;;;;;;;2.43;nan;100102.13;5034910;28;20045;-79
2021/12/08 14:17:44;;;;;;;;;;;;;;;2.41;nan;100104.88;5037228;28;20377;-78
2021/12/08 14:20:35;;;;;;;50.38;22.75;;;;;;;2.30;nan;100089.75;5037282;28;19913;-80
2021/12/08 14:23:23;;;;;;;54.22;24.30;;;;;;;2.36;nan;100101.22;5031181;28;20563;-79
2021/12/08 14:26:18;;;;;;;39.77;18.63;;;;;;;2.39;nan;100090.47;5038305;28;20068;-78
2021/12/08 14:29:10;;;;;;;54.58;25.15;;;;;;;2.40;nan;100092.09;5037619;28;20042;-79
2021/12/08 14:31:58;;;;;;;57.63;25.25;;;;;;;2.35;nan;100082.22;5038851;28;20113;-80
2021/12/08 14:34:44;;;;;;;59.00;25.13;;;;;;;2.35;nan;100087.44;5037954;28;20479;-78
2021/12/08 14:37:30;;;;;;;58.58;24.95;;;;;;;2.28;nan;100083.94;5041581;28;20123;-77
2021/12/08 14:40:18;;;;;;;59.88;25.33;;;;;;;2.20;nan;100084.00;5043084;28;20030;-79
2021/12/08 14:43:04;;;;;;;55.30;25.43;;;;;;;2.27;nan;100097.88;5040415;28;20068;-79
2021/12/08 14:45:50;;;;;;;54.42;23.27;;;;;;;2.23;nan;100107.03;5040182;28;20059;-80
2021/12/08 14:48:44;;;;;;;59.15;23.90;;;;;;;2.20;nan;100097.78;5039316;28;20033;-77
2021/12/08 14:51:31;;;;;;;52.58;23.23;;;;;;;2.12;nan;100085.69;5020759;28;20037;-76
2021/12/08 14:54:22;;;;;;;60.30;23.25;;;;;;;2.08;nan;100078.44;5032712;28;20110;-75
2021/12/08 14:57:13;;;;;;;60.08;22.52;;;;;;;2.00;nan;100070.72;5032613;28;20033;-76
2021/12/08 15:00:18;;;;;;;52.85;23.08;;;;;;;1.97;nan;100073.69;5032324;28;20479;-75
2021/12/08 15:03:11;;;;;;;50.90;22.00;;;;;;;1.92;nan;100076.81;5033080;28;20040;-74
2021/12/08 15:05:57;;;;;;;53.72;24.48;;;;;;;1.82;nan;100066.66;5032046;28;20041;-75